Jamestown, Colorado
Current Conditions -  °F | °C
As of 5:36 PM on Saturday 25 Oct 2014 (Local Time) from KBDU Reporting Station
Clear Clear  
Wind Chill: 77°   Ceiling: Unl
Heat Index: 77°   Visibility: 10mi
Dew Point: 25°   Wind: 0mph
Humidity: 14%   Direction: NA
Pressure: 30.05"   Gusts: NA
Location:  40.12°N, 105.39°W
Report Text: KBDU 252336Z AUTO 00000KT 10SM CLR 25/M04 A3005 RMK AO2
Loading
Personal Weather Stations






























Interactive Weather Map
Tropical Storm Tracking
New forecast layout! Learn more

10-Day Weather Forecast

Advertisements
Track Severe Weather on mobile